• Join FlightAware (Why Join?)
  • Login
  • US Flag 
10:50AM EDT


 

Airport Tracker/Info


-or-


 

Live Flight TrackerFlight Track Log ✈ N237VP ✈ 09-May-2013 ✈ KSGR - KMSY

Flight Track Log - Related Links

Times and Time Zones

All times are in EDT time to prevent confusion due to time zone crossing. See the N237VP flight status page for this flight to view local times or setup timezone preferences in your user account.

Time Position Orientation Groundspeed Altitude Reporting Facility
EDT Latitude Longitude Course Direction KTS MPH feet Rate Location/Type
03:47PM 29.6142 -95.6569 175° South 159 183 600  Level Houston Center
03:48PM 29.5697 -95.6525 175° South 177 204 3,400 2,640 Climbing Houston Center
03:49PM 29.5472 -95.6456 165° South 179 206 4,800 2,040 Climbing Houston Center
03:49PM 29.5264 -95.6144 128° Southeast 241 277 5,500 3,540 Climbing Houston Center
03:50PM 29.5014 -95.5761 127° Southeast 224 258 8,500 3,480 Climbing Houston Center
03:50PM 29.4900 -95.5586 127° Southeast 223 257 9,100 2,340 Climbing Houston Center
03:51PM 29.4803 -95.5047 102° East 244 281 11,000 2,820 Climbing Houston Center
03:52PM 29.5003 -95.4236 74° East 264 304 14,000 2,460 Climbing Houston Center
03:53PM 29.5275 -95.3425 69° East 272 313 16,200 1,980 Climbing Houston Center
03:54PM 29.5525 -95.2525 72° East 294 338 18,200 2,040 Climbing Houston Center
03:55PM 29.5853 -95.1469 70° East 313 360 20,500 1,980 Climbing Houston Center
03:56PM 29.6125 -95.0417 73° East 334 384 22,300 1,740 Climbing Houston Center
03:57PM 29.6406 -94.9347 73° East 350 403 24,200 1,920 Climbing Houston Center
03:58PM 29.6783 -94.8064 71° East 355 409 26,400 1,320 Climbing Houston Center
03:59PM 29.7089 -94.6942 73° East 362 417 27,000 240 Climbing Houston Center
04:00PM 29.7131 -94.5603 88° East 413 475 27,000  Level Houston Center
04:01PM 29.7186 -94.4206 87° East 432 497 27,000  Level Houston Center
04:02PM 29.7156 -94.2758 91° East 450 518 27,000  Level Houston Center
04:03PM 29.6961 -94.1200 98° East 455 524 27,000  Level Houston Center
04:04PM 29.6825 -93.9736 96° East 460 529 27,000  Level Houston Center
04:05PM 29.6961 -93.8275 84° East 463 533 27,000  Level Houston Center
04:06PM 29.7294 -93.6569 77° East 459 528 27,000  Level Houston Center
04:07PM 29.7494 -93.5153 81° East 453 521 27,000  Level Houston Center
04:08PM 29.7708 -93.3753 80° East 450 518 27,000  Level Houston Center
04:09PM 29.7922 -93.2353 80° East 449 517 27,000  Level Houston Center
04:10PM 29.8181 -93.0661 80° East 452 520 27,000  Level Houston Center
04:12PM 29.8383 -92.9267 80° East 446 513 27,000  Level Houston Center
04:13PM 29.8586 -92.7850 81° East 451 519 27,000  Level Houston Center
04:14PM 29.8806 -92.6433 80° East 452 520 27,000  Level Houston Center
04:15PM 29.9003 -92.5047 81° East 445 512 27,000  Level Houston Center
04:16PM 29.9211 -92.3628 80° East 450 518 27,000  Level Houston Center
04:17PM 29.9447 -92.1933 81° East 449 517 27,000  Level Houston Center
04:18PM 29.9647 -92.0519 81° East 448 516 27,000 -60 Level Houston Center
04:19PM 29.9867 -91.9094 80° East 453 521 26,900 -1,020 Descending Houston Center
04:20PM 30.0056 -91.7689 81° East 447 514 25,000 -2,280 Descending Houston Center
04:21PM 30.0278 -91.6172 80° East 434 499 22,200 -2,400 Descending Houston Center
04:22PM 30.0456 -91.4875 81° East 415 478 20,000 -2,040 Descending Houston Center
04:23PM 30.0631 -91.3642 81° East 395 455 18,000 -2,160 Descending Houston Center
04:24PM 30.0792 -91.2478 81° East 373 429 15,600 -2,460 Descending Houston Center
04:25PM 30.0958 -91.1150 82° East 352 405 13,000 -2,400 Descending Houston Center
04:25PM 30.0989 -91.0853 83° East 343 395 12,500 -1,980 Descending Houston Center
04:26PM 30.1003 -91.0075 89° East 340 391 11,000 -2,100 Descending Houston Center
04:26PM 30.0961 -90.9722 98° East 324 373 10,200 -1,920 Descending Houston Center
04:27PM 30.0875 -90.9081 99° East 317 365 9,000 -1,980 Descending Houston Center
04:27PM 30.0856 -90.8767 94° East 296 341 8,200 -2,040 Descending Houston Center
04:28PM 30.0811 -90.8147 95° East 301 346 6,900 -2,100 Descending Houston Center
04:29PM 30.0783 -90.7664 94° East 292 336 5,900 -1,980 Descending Houston Center
04:29PM 30.0739 -90.7228 97° East 295 339 4,900 -2,040 Descending Houston Center
04:29PM 30.0700 -90.6850 97° East 278 320 4,100 -780 Descending Houston Center
04:30PM 30.0636 -90.6108 96° East 256 295 4,000 -60 Descending Houston Center
04:31PM 30.0603 -90.5403 93° East 266 306 4,000 -600 Level Houston Center
04:32PM 30.0428 -90.4689 106° East 244 281 2,900 -1,020 Descending Houston Center
04:33PM 30.0261 -90.4053 107° East 221 254 2,000 -900 Descending Houston Center
04:34PM 30.0144 -90.3533 105° East 195 224 1,100 -720 Descending Houston Center
04:35PM 30.0064 -90.3183 105° East 146 168 500 -600 Descending Houston Center
04:38PM 29.9934 -90.2580 101° East  Level Estimated
04:45PM 29.9934 -90.2580 101° East  Level Estimated
04:46PM 29.9934 -90.2580 101° East  Level Estimated